Time;durP1;ratioP1;P1;durP2;ratioP2;P2;SDS_P1;SDS_P2;PMS_P1;PMS_P2;Temp;Humidity;BMP_temperature;BMP_pressure;BME280_temperature;BME280_humidity;BME280_pressure;Samples;Min_cycle;Max_cycle;Signal;HPM_P1;HPM_P2
2023/02/14 00:01:12;;;;;;;1.80;0.50;;;;;;;-142.37;100.00;59669.53;5093484;28;20396;-60
2023/02/14 00:03:38;;;;;;;2.47;0.93;;;;;;;-142.37;100.00;59669.53;5093700;28;20118;-63
2023/02/14 00:06:09;;;;;;;0.85;0.47;;;;;;;-142.37;100.00;59669.53;5093567;28;20034;-61
2023/02/14 00:08:35;;;;;;;2.55;1.10;;;;;;;-142.37;100.00;59669.53;5095246;28;20034;-60
2023/02/14 00:11:02;;;;;;;2.00;0.60;;;;;;;-142.37;100.00;59669.53;5093860;28;20052;-61
2023/02/14 00:13:27;;;;;;;2.08;0.60;;;;;;;-142.37;100.00;59669.53;5094754;28;20510;-62
2023/02/14 00:15:54;;;;;;;1.65;0.57;;;;;;;-142.37;100.00;59669.53;5094452;28;20075;-60
2023/02/14 00:18:20;;;;;;;3.80;0.70;;;;;;;-142.37;100.00;59669.53;5093603;28;20081;-61
2023/02/14 00:20:46;;;;;;;2.10;0.70;;;;;;;-142.37;100.00;59669.53;5094771;28;20028;-60
2023/02/14 00:23:12;;;;;;;2.83;0.47;;;;;;;-142.37;100.00;59669.53;5094503;28;20020;-61
2023/02/14 00:25:38;;;;;;;2.25;0.45;;;;;;;-142.37;100.00;59669.53;5093688;28;20055;-60
2023/02/14 00:28:04;;;;;;;0.55;0.30;;;;;;;-142.37;100.00;59669.53;5093485;28;20056;-60
2023/02/14 00:30:29;;;;;;;1.98;0.40;;;;;;;-142.37;100.00;59669.53;5094595;28;20496;-60
2023/02/14 00:32:55;;;;;;;1.88;0.70;;;;;;;-142.37;100.00;59669.53;5094637;28;20392;-59
2023/02/14 00:35:21;;;;;;;1.35;0.52;;;;;;;-142.37;100.00;59669.53;5093239;28;20032;-61
2023/02/14 00:37:46;;;;;;;3.97;0.63;;;;;;;-142.37;100.00;59669.53;5094280;28;20036;-62
2023/02/14 00:40:12;;;;;;;1.33;0.40;;;;;;;-142.37;100.00;59669.53;5094380;28;20435;-59
2023/02/14 00:42:39;;;;;;;1.45;0.70;;;;;;;-142.37;100.00;59669.53;5093007;28;20067;-60
2023/02/14 00:45:05;;;;;;;2.88;0.80;;;;;;;-142.37;100.00;59669.53;5092770;28;20454;-60
2023/02/14 00:47:31;;;;;;;2.05;0.55;;;;;;;-142.37;100.00;59669.53;5092888;28;20528;-61
2023/02/14 00:50:01;;;;;;;1.42;0.90;;;;;;;-142.37;100.00;59669.53;5093963;28;20024;-62
2023/02/14 00:52:29;;;;;;;3.42;0.70;;;;;;;-142.37;100.00;59669.53;5094267;28;20020;-59
2023/02/14 00:54:55;;;;;;;1.27;0.50;;;;;;;-142.37;100.00;59669.53;5092980;28;20403;-61
2023/02/14 00:57:20;;;;;;;2.08;0.50;;;;;;;-142.37;100.00;59669.53;5092581;28;20036;-61
2023/02/14 00:59:46;;;;;;;1.98;1.23;;;;;;;-142.37;100.00;59669.53;5092824;28;20533;-62
2023/02/14 01:02:12;;;;;;;0.60;0.50;;;;;;;-142.37;100.00;59669.53;5094005;28;20036;-60
2023/02/14 01:04:38;;;;;;;1.95;0.52;;;;;;;-142.37;100.00;59669.53;5093805;28;20039;-60
2023/02/14 01:07:03;;;;;;;1.65;0.57;;;;;;;-142.37;100.00;59669.53;5093944;28;20479;-61
2023/02/14 01:09:29;;;;;;;2.03;0.55;;;;;;;-142.37;100.00;59669.53;5094238;28;20065;-61
2023/02/14 01:11:54;;;;;;;2.78;0.40;;;;;;;-142.37;100.00;59669.53;5092366;28;20063;-62
2023/02/14 01:14:20;;;;;;;1.67;0.50;;;;;;;-142.37;100.00;59669.53;5093559;28;20106;-61
2023/02/14 01:16:46;;;;;;;3.10;0.73;;;;;;;-142.37;100.00;59669.53;5092323;28;20035;-60
2023/02/14 01:19:11;;;;;;;3.20;0.80;;;;;;;-142.37;100.00;59669.53;5091860;28;20035;-61
2023/02/14 01:21:37;;;;;;;1.58;0.65;;;;;;;-142.37;100.00;59669.53;5093608;28;20464;-61
2023/02/14 01:24:06;;;;;;;0.98;0.40;;;;;;;-142.37;100.00;59669.53;5093050;28;20477;-61
2023/02/14 01:26:32;;;;;;;2.25;0.80;;;;;;;-142.37;100.00;59669.53;5092353;28;20032;-59
2023/02/14 01:28:58;;;;;;;3.50;0.60;;;;;;;-142.37;100.00;59669.53;5093405;28;20118;-62
2023/02/14 01:31:27;;;;;;;3.28;0.47;;;;;;;-142.37;100.00;59669.53;5093284;28;20480;-62
2023/02/14 01:33:54;;;;;;;2.70;0.50;;;;;;;-142.37;100.00;59669.53;5093346;28;20069;-61
2023/02/14 01:36:28;;;;;;;2.75;0.65;;;;;;;-142.37;100.00;59669.53;5093652;28;20036;-60
2023/02/14 01:38:57;;;;;;;1.75;0.68;;;;;;;-142.37;100.00;59669.53;5092107;28;20027;-61
2023/02/14 01:41:25;;;;;;;3.10;0.60;;;;;;;-142.37;100.00;59669.53;5093395;28;20085;-61
2023/02/14 01:44:06;;;;;;;1.15;0.38;;;;;;;-142.37;100.00;59669.53;5091942;28;20020;-63
2023/02/14 01:46:36;;;;;;;1.40;0.57;;;;;;;-142.37;100.00;59669.53;5092156;28;20032;-61
2023/02/14 01:49:14;;;;;;;2.63;0.60;;;;;;;-142.37;100.00;59669.53;5091766;28;20036;-59
2023/02/14 01:52:04;;;;;;;1.30;0.52;;;;;;;-142.37;100.00;59669.53;5093701;28;20065;-61
2023/02/14 01:54:32;;;;;;;3.25;0.73;;;;;;;-142.37;100.00;59669.53;5093573;28;20027;-61
2023/02/14 01:57:04;;;;;;;2.05;0.82;;;;;;;-142.37;100.00;59669.53;5091714;28;20032;-59
2023/02/14 01:59:38;;;;;;;1.95;0.68;;;;;;;-142.37;100.00;59669.53;5092214;28;20031;-60
2023/02/14 02:02:04;;;;;;;2.47;0.70;;;;;;;-142.37;100.00;59669.53;5093168;28;20028;-60
2023/02/14 02:04:39;;;;;;;1.63;0.60;;;;;;;-142.37;100.00;59669.53;5091688;28;20031;-60
2023/02/14 02:07:09;;;;;;;1.80;0.80;;;;;;;-142.37;100.00;59669.53;5092973;28;20073;-59
2023/02/14 02:09:37;;;;;;;1.60;0.50;;;;;;;-142.37;100.00;59669.53;5093819;28;20081;-59
2023/02/14 02:12:03;;;;;;;2.08;0.60;;;;;;;-142.37;100.00;59669.53;5093362;28;20028;-60
2023/02/14 02:14:30;;;;;;;1.40;0.70;;;;;;;-142.37;100.00;59669.53;5092967;28;20103;-59
2023/02/14 02:17:07;;;;;;;3.13;0.75;;;;;;;-142.37;100.00;59669.53;5093055;28;20111;-60
2023/02/14 02:20:04;;;;;;;1.95;0.77;;;;;;;-142.37;100.00;59669.53;5091013;28;20119;-60
2023/02/14 02:22:36;;;;;;;1.92;0.60;;;;;;;-142.37;100.00;59669.53;5091275;28;20032;-59
2023/02/14 02:26:00;;;;;;;2.13;1.05;;;;;;;-142.37;100.00;59669.53;5092534;28;20551;-59
2023/02/14 02:29:02;;;;;;;3.40;0.93;;;;;;;-142.37;100.00;59669.53;5054584;28;20044;-60
2023/02/14 02:31:38;;;;;;;2.45;0.70;;;;;;;-142.37;100.00;59669.53;5080227;28;20493;-59
2023/02/14 02:34:43;;;;;;;1.40;0.55;;;;;;;-142.37;100.00;59669.53;5090754;28;20024;-68
2023/02/14 02:37:27;;;;;;;2.17;0.50;;;;;;;-142.37;100.00;59669.53;5092296;28;20444;-59
2023/02/14 02:40:27;;;;;;;2.53;0.50;;;;;;;-142.37;100.00;59669.53;5090972;28;20395;-60
2023/02/14 02:43:08;;;;;;;1.02;0.50;;;;;;;-142.37;100.00;59669.53;5091069;28;20029;-61
2023/02/14 02:48:43;;;;;;;2.25;0.77;;;;;;;-142.37;100.00;59669.53;5092591;28;20077;-60
2023/02/14 02:54:12;;;;;;;0.70;0.45;;;;;;;-142.37;100.00;59669.53;5092448;28;20035;-59
2023/02/14 02:56:48;;;;;;;3.97;0.63;;;;;;;-142.37;100.00;59669.53;5092182;28;20036;-61
2023/02/14 02:59:38;;;;;;;1.73;0.65;;;;;;;-142.37;100.00;59669.53;5091812;28;20043;-60
2023/02/14 03:05:26;;;;;;;2.65;0.77;;;;;;;-142.37;100.00;59669.53;5089327;28;20082;-60
2023/02/14 03:07:51;;;;;;;2.47;0.52;;;;;;;-142.37;100.00;59669.53;5092070;28;20031;-60
2023/02/14 03:10:21;;;;;;;2.20;0.43;;;;;;;-142.37;100.00;59669.53;5091777;28;20110;-60
2023/02/14 03:12:58;;;;;;;3.35;0.90;;;;;;;-142.37;100.00;59669.53;5092046;28;20024;-62
2023/02/14 03:16:11;;;;;;;3.15;0.50;;;;;;;-142.37;100.00;59669.53;5090149;28;20052;-61
2023/02/14 03:18:53;;;;;;;3.17;0.85;;;;;;;-142.37;100.00;59669.53;5012665;28;20036;-60
2023/02/14 03:21:41;;;;;;;2.47;0.57;;;;;;;-142.37;100.00;59669.53;5029588;28;20436;-60
2023/02/14 03:24:35;;;;;;;1.27;0.55;;;;;;;-142.37;100.00;59669.53;5073993;28;20113;-61
2023/02/14 03:27:27;;;;;;;0.88;0.47;;;;;;;-142.37;100.00;59669.53;5091925;28;20032;-60
2023/02/14 03:30:17;;;;;;;1.88;0.45;;;;;;;-142.37;100.00;59669.53;5080109;28;20078;-59
2023/02/14 03:32:57;;;;;;;2.95;0.68;;;;;;;-142.37;100.00;59669.53;5090558;28;20080;-60
2023/02/14 03:35:54;;;;;;;1.27;0.60;;;;;;;-142.37;100.00;59669.53;5090516;28;20024;-60
2023/02/14 03:38:33;;;;;;;2.97;0.50;;;;;;;-142.37;100.00;59669.53;5079637;28;20071;-59
2023/02/14 03:41:11;;;;;;;2.67;0.60;;;;;;;-142.37;100.00;59669.53;5091621;28;20024;-59
2023/02/14 03:44:00;;;;;;;3.08;0.70;;;;;;;-142.37;100.00;59669.53;5090997;28;20028;-59
2023/02/14 03:46:29;;;;;;;1.08;0.73;;;;;;;-142.37;100.00;59669.53;5093912;28;20020;-61
2023/02/14 03:48:58;;;;;;;3.50;0.60;;;;;;;-142.37;100.00;59669.53;5094027;28;20484;-61
2023/02/14 03:51:26;;;;;;;1.00;0.50;;;;;;;-142.37;100.00;59669.53;5093750;28;20028;-61
2023/02/14 03:53:55;;;;;;;2.90;0.60;;;;;;;-142.37;100.00;59669.53;5095278;28;20069;-61
2023/02/14 03:56:44;;;;;;;3.13;0.45;;;;;;;-142.37;100.00;59669.53;5093771;28;20020;-61
2023/02/14 03:59:15;;;;;;;3.20;0.57;;;;;;;-142.37;100.00;59669.53;5094804;28;20032;-60
2023/02/14 04:01:55;;;;;;;1.08;0.45;;;;;;;-142.37;100.00;59669.53;5095343;28;20064;-61
2023/02/14 04:04:26;;;;;;;0.90;0.63;;;;;;;-142.37;100.00;59669.53;5095008;28;20468;-61
2023/02/14 04:06:51;;;;;;;1.25;0.73;;;;;;;-142.37;100.00;59669.53;5093911;28;20031;-60
2023/02/14 04:09:17;;;;;;;2.55;0.50;;;;;;;-142.37;100.00;59669.53;5094748;28;20380;-60
2023/02/14 04:11:45;;;;;;;2.55;0.70;;;;;;;-142.37;100.00;59669.53;5093491;28;20538;-60
2023/02/14 04:14:11;;;;;;;2.13;0.50;;;;;;;-142.37;100.00;59669.53;5092985;28;20052;-59
2023/02/14 04:19:22;;;;;;;2.40;0.85;;;;;;;-142.37;100.00;59669.53;5094750;28;20548;-61
2023/02/14 04:21:48;;;;;;;6.28;1.15;;;;;;;-142.37;100.00;59669.53;5094772;28;20182;-61
2023/02/14 04:24:14;;;;;;;1.83;0.68;;;;;;;-142.37;100.00;59669.53;5093379;28;20028;-61
2023/02/14 04:26:52;;;;;;;1.10;0.60;;;;;;;-142.37;100.00;59669.53;5094623;28;20032;-61
2023/02/14 04:29:20;;;;;;;2.05;0.47;;;;;;;-142.37;100.00;59669.53;5093536;28;20118;-62
2023/02/14 04:31:46;;;;;;;2.65;0.93;;;;;;;-142.37;100.00;59669.53;5094514;28;20034;-62
2023/02/14 04:34:12;;;;;;;3.80;0.85;;;;;;;-142.37;100.00;59669.53;5094503;28;20036;-61
2023/02/14 04:36:38;;;;;;;2.95;0.82;;;;;;;-142.37;100.00;59669.53;5093239;28;20047;-60
2023/02/14 04:39:04;;;;;;;5.47;0.80;;;;;;;-142.37;100.00;59669.53;5094224;28;20548;-60
2023/02/14 04:41:29;;;;;;;2.35;0.70;;;;;;;-142.37;100.00;59669.53;5094281;28;20035;-60
2023/02/14 04:43:55;;;;;;;3.22;0.73;;;;;;;-142.37;100.00;59669.53;5093260;28;20021;-60
2023/02/14 04:46:21;;;;;;;2.42;0.70;;;;;;;-142.37;100.00;59669.53;5093043;28;20556;-61
2023/02/14 04:48:46;;;;;;;2.75;0.68;;;;;;;-142.37;100.00;59669.53;5093033;28;20055;-60
2023/02/14 04:51:12;;;;;;;2.17;1.05;;;;;;;-142.37;100.00;59669.53;5093799;28;20143;-61
2023/02/14 04:53:39;;;;;;;6.38;1.33;;;;;;;-142.37;100.00;59669.53;5093940;28;20102;-61
2023/02/14 04:56:07;;;;;;;1.80;0.70;;;;;;;-142.37;100.00;59669.53;5093798;28;20035;-61
2023/02/14 04:58:34;;;;;;;5.38;0.85;;;;;;;-142.37;100.00;59669.53;5092036;28;20482;-61
2023/02/14 05:00:59;;;;;;;2.08;0.52;;;;;;;-142.37;100.00;59669.53;5092256;28;20051;-62
2023/02/14 05:03:25;;;;;;;3.15;0.80;;;;;;;-142.37;100.00;59669.53;5092382;28;20492;-62
2023/02/14 05:05:51;;;;;;;1.38;0.68;;;;;;;-142.37;100.00;59669.53;5092363;28;20063;-62
2023/02/14 05:08:17;;;;;;;3.85;0.90;;;;;;;-142.37;100.00;59669.53;5093635;28;20020;-62
2023/02/14 05:10:43;;;;;;;2.67;1.33;;;;;;;-142.37;100.00;59669.53;5093780;28;20077;-61
2023/02/14 05:13:08;;;;;;;5.85;0.85;;;;;;;-142.37;100.00;59669.53;5092216;28;20028;-60
2023/02/14 05:15:34;;;;;;;4.55;0.70;;;;;;;-142.37;100.00;59669.53;5091958;28;20515;-60
2023/02/14 05:18:01;;;;;;;5.25;0.90;;;;;;;-142.37;100.00;59669.53;5094122;28;20020;-60
2023/02/14 05:20:28;;;;;;;1.63;0.77;;;;;;;-142.37;100.00;59669.53;5092128;28;20028;-60
2023/02/14 05:22:54;;;;;;;5.45;1.10;;;;;;;-142.37;100.00;59669.53;5091805;28;20027;-61
2023/02/14 05:25:19;;;;;;;2.10;0.75;;;;;;;-142.37;100.00;59669.53;5092974;28;20493;-61
2023/02/14 05:27:45;;;;;;;4.05;0.80;;;;;;;-142.37;100.00;59669.53;5091993;28;20119;-62
2023/02/14 05:30:12;;;;;;;1.95;0.70;;;;;;;-142.37;100.00;59669.53;5092023;28;20020;-61
2023/02/14 05:32:38;;;;;;;3.47;0.70;;;;;;;-142.37;100.00;59669.53;5093296;28;20032;-61
2023/02/14 05:35:04;;;;;;;5.20;1.10;;;;;;;-142.37;100.00;59669.53;5091547;28;20111;-60
2023/02/14 05:37:30;;;;;;;5.93;1.27;;;;;;;-142.37;100.00;59669.53;5092494;28;20039;-61
2023/02/14 05:39:55;;;;;;;5.80;1.00;;;;;;;-142.37;100.00;59669.53;5091751;28;20024;-60
2023/02/14 05:42:21;;;;;;;3.15;0.80;;;;;;;-142.37;100.00;59669.53;5091346;28;20111;-62
2023/02/14 05:44:47;;;;;;;3.58;0.80;;;;;;;-142.37;100.00;59669.53;5091796;28;20051;-62
2023/02/14 05:47:13;;;;;;;5.25;1.27;;;;;;;-142.37;100.00;59669.53;5092963;28;20032;-61
2023/02/14 05:49:39;;;;;;;2.20;0.90;;;;;;;-142.37;100.00;59669.53;5092796;28;20098;-61
2023/02/14 05:52:05;;;;;;;2.85;1.25;;;;;;;-142.37;100.00;59669.53;5092489;28;20498;-60
2023/02/14 05:54:31;;;;;;;3.28;0.90;;;;;;;-142.37;100.00;59669.53;5092997;28;20066;-60
2023/02/14 05:56:57;;;;;;;5.13;1.15;;;;;;;-142.37;100.00;59669.53;5092461;28;20062;-58
2023/02/14 05:59:22;;;;;;;2.28;0.65;;;;;;;-142.37;100.00;59669.53;5093164;28;20032;-60
2023/02/14 06:01:48;;;;;;;4.65;1.00;;;;;;;-142.37;100.00;59669.53;5092776;28;20480;-62
2023/02/14 06:04:14;;;;;;;3.83;0.80;;;;;;;-142.37;100.00;59669.53;5092252;28;20162;-61
2023/02/14 06:06:39;;;;;;;7.65;2.55;;;;;;;-142.37;100.00;59669.53;5090787;28;20020;-61
2023/02/14 06:09:06;;;;;;;9.43;1.30;;;;;;;-142.37;100.00;59669.53;5090174;28;20161;-61
2023/02/14 06:11:32;;;;;;;13.40;2.13;;;;;;;-142.37;100.00;59669.53;5092403;28;20028;-61
2023/02/14 06:13:58;;;;;;;3.85;1.60;;;;;;;-142.37;100.00;59669.53;5090703;28;20044;-59
2023/02/14 06:16:23;;;;;;;3.13;1.02;;;;;;;-142.37;100.00;59669.53;5092656;28;20024;-62
2023/02/14 06:18:49;;;;;;;8.02;1.08;;;;;;;-142.37;100.00;59669.53;5090779;28;20082;-62
2023/02/14 06:21:14;;;;;;;3.53;1.35;;;;;;;-142.37;100.00;59669.53;5089387;28;20024;-62
2023/02/14 06:23:40;;;;;;;5.10;1.15;;;;;;;-142.37;100.00;59669.53;5091846;28;20102;-62
2023/02/14 06:26:06;;;;;;;8.02;1.40;;;;;;;-142.37;100.00;59669.53;5091967;28;20108;-61
2023/02/14 06:28:32;;;;;;;6.30;1.98;;;;;;;-142.37;100.00;59669.53;5090402;28;20040;-62
2023/02/14 06:30:57;;;;;;;5.78;1.90;;;;;;;-142.37;100.00;59669.53;5091102;28;20047;-62
2023/02/14 06:33:23;;;;;;;11.40;1.13;;;;;;;-142.37;100.00;59669.53;5091098;28;20016;-62
2023/02/14 06:35:49;;;;;;;5.07;0.93;;;;;;;-142.37;100.00;59669.53;5090273;28;20028;-61
2023/02/14 06:38:14;;;;;;;4.90;0.90;;;;;;;-142.37;100.00;59669.53;5090915;28;20020;-60
2023/02/14 06:40:40;;;;;;;4.03;0.75;;;;;;;-142.37;100.00;59669.53;5092680;28;20028;-61
2023/02/14 06:43:06;;;;;;;3.00;0.85;;;;;;;-142.37;100.00;59669.53;5090528;28;20062;-59
2023/02/14 06:45:31;;;;;;;2.50;0.73;;;;;;;-142.37;100.00;59669.53;5090203;28;20031;-62
2023/02/14 06:47:58;;;;;;;4.45;1.00;;;;;;;-142.37;100.00;59669.53;5091475;28;20107;-61
2023/02/14 06:50:24;;;;;;;3.88;1.00;;;;;;;-142.37;100.00;59669.53;5091062;28;20020;-61
2023/02/14 06:52:51;;;;;;;2.38;0.73;;;;;;;-142.37;100.00;59669.53;5091175;28;20036;-61
2023/02/14 06:55:17;;;;;;;6.75;1.10;;;;;;;-142.37;100.00;59669.53;5090024;28;20088;-63
2023/02/14 06:57:44;;;;;;;6.00;0.82;;;;;;;-142.37;100.00;59669.53;5090542;28;20028;-62
2023/02/14 07:00:10;;;;;;;6.70;0.85;;;;;;;-142.37;100.00;59669.53;5088889;28;20146;-62
2023/02/14 07:02:36;;;;;;;2.85;0.88;;;;;;;-142.37;100.00;59669.53;5089837;28;20044;-62
2023/02/14 07:05:02;;;;;;;6.75;2.03;;;;;;;-142.37;100.00;59669.53;5088857;28;20028;-63
2023/02/14 07:07:28;;;;;;;5.75;1.23;;;;;;;-142.37;100.00;59669.53;5091090;28;20526;-62
2023/02/14 07:09:54;;;;;;;2.13;0.90;;;;;;;-142.37;100.00;59669.53;5090904;28;20426;-62
2023/02/14 07:12:19;;;;;;;5.55;2.15;;;;;;;-142.37;100.00;59669.53;5091144;28;20024;-63
2023/02/14 07:14:45;;;;;;;4.70;1.20;;;;;;;-142.37;100.00;59669.53;5089477;28;20048;-62
2023/02/14 07:17:11;;;;;;;5.22;0.80;;;;;;;-142.37;100.00;59669.53;5088466;28;20507;-62
2023/02/14 07:19:36;;;;;;;1.67;1.02;;;;;;;-142.37;100.00;59669.53;5089262;28;20024;-62
2023/02/14 07:22:02;;;;;;;5.60;0.93;;;;;;;-142.37;100.00;59669.53;5092625;28;20028;-63
2023/02/14 07:24:28;;;;;;;5.07;1.17;;;;;;;-142.37;100.00;59669.53;5093120;28;20032;-61
2023/02/14 07:26:54;;;;;;;5.85;1.20;;;;;;;-142.37;100.00;59669.53;5093890;28;20066;-61
2023/02/14 07:29:20;;;;;;;7.07;1.50;;;;;;;-142.37;100.00;59669.53;5094207;28;20434;-62
2023/02/14 07:31:45;;;;;;;5.55;1.73;;;;;;;-142.37;100.00;59669.53;5094358;28;20392;-61
2023/02/14 07:34:11;;;;;;;10.80;2.08;;;;;;;-142.37;100.00;59669.53;5094494;28;20028;-61
2023/02/14 07:36:37;;;;;;;3.95;1.45;;;;;;;-142.37;100.00;59669.53;5093388;28;20085;-63
2023/02/14 07:39:04;;;;;;;8.77;1.50;;;;;;;-142.37;100.00;59669.53;5094911;28;20085;-62
2023/02/14 07:41:30;;;;;;;4.65;1.30;;;;;;;-142.37;100.00;59669.53;5093944;28;20059;-62
2023/02/14 07:43:55;;;;;;;4.10;1.30;;;;;;;-142.37;100.00;59669.53;5093350;28;20115;-63
2023/02/14 07:46:21;;;;;;;4.03;1.13;;;;;;;-142.37;100.00;59669.53;5093546;28;20315;-63
2023/02/14 07:48:47;;;;;;;5.60;1.20;;;;;;;-142.37;100.00;59669.53;5093907;28;20066;-62
2023/02/14 07:51:13;;;;;;;3.83;1.88;;;;;;;-142.37;100.00;59669.53;5092285;28;20085;-62
2023/02/14 07:53:40;;;;;;;14.18;2.80;;;;;;;-142.37;100.00;59669.53;5092319;28;20040;-62
2023/02/14 07:56:06;;;;;;;4.57;1.42;;;;;;;-142.37;100.00;59669.53;5094224;28;20031;-62
2023/02/14 07:58:31;;;;;;;5.00;1.80;;;;;;;-142.37;100.00;59669.53;5094607;28;20074;-61
2023/02/14 08:00:57;;;;;;;2.78;1.27;;;;;;;-142.37;100.00;59669.53;5093600;28;20028;-60
2023/02/14 08:03:23;;;;;;;3.85;1.42;;;;;;;-142.37;100.00;59669.53;5093322;28;20178;-62
2023/02/14 08:05:57;;;;;;;3.67;1.35;;;;;;;-142.37;100.00;59669.53;5095852;28;20441;-61
2023/02/14 08:08:25;;;;;;;6.97;1.42;;;;;;;-142.37;100.00;59669.53;5095344;28;20377;-61
2023/02/14 08:10:51;;;;;;;1.90;1.10;;;;;;;-142.37;100.00;59669.53;5093304;28;20122;-62
2023/02/14 08:13:16;;;;;;;3.67;1.40;;;;;;;-142.37;100.00;59669.53;5092955;28;20115;-61
2023/02/14 08:16:15;;;;;;;3.85;1.40;;;;;;;-142.37;100.00;59669.53;5092695;28;20493;-62
2023/02/14 08:18:39;;;;;;;3.35;1.00;;;;;;;-142.37;100.00;59669.53;5092758;28;20036;-62
2023/02/14 08:21:06;;;;;;;3.75;1.13;;;;;;;-142.37;100.00;59669.53;5094579;28;20039;-61
2023/02/14 08:23:32;;;;;;;4.45;1.40;;;;;;;-142.37;100.00;59669.53;5093092;28;20035;-62
2023/02/14 08:25:58;;;;;;;12.73;1.77;;;;;;;-142.37;100.00;59669.53;5094267;28;20039;-61
2023/02/14 08:28:25;;;;;;;6.38;1.98;;;;;;;-142.37;100.00;59669.53;5094512;28;20103;-59
2023/02/14 08:30:51;;;;;;;6.15;1.33;;;;;;;-142.37;100.00;59669.53;5094371;28;20391;-61
2023/02/14 08:33:17;;;;;;;6.22;1.45;;;;;;;-142.37;100.00;59669.53;5092476;28;20480;-62
2023/02/14 08:35:43;;;;;;;5.78;0.95;;;;;;;-142.37;100.00;59669.53;5094335;28;20020;-59
2023/02/14 08:38:09;;;;;;;6.20;1.25;;;;;;;-142.37;100.00;59669.53;5093801;28;20028;-61
2023/02/14 08:40:36;;;;;;;8.38;1.40;;;;;;;-142.37;100.00;59669.53;5094839;28;20126;-60
2023/02/14 08:43:06;;;;;;;10.55;1.67;;;;;;;-142.37;100.00;59669.53;5092663;28;20130;-61
2023/02/14 08:45:32;;;;;;;6.85;1.40;;;;;;;-142.37;100.00;59669.53;5092769;28;20415;-60
2023/02/14 08:48:06;;;;;;;4.45;1.30;;;;;;;-142.37;100.00;59669.53;5092315;28;20428;-61
2023/02/14 08:50:33;;;;;;;9.23;1.60;;;;;;;-142.37;100.00;59669.53;5093280;28;20063;-61
2023/02/14 08:52:59;;;;;;;12.48;1.58;;;;;;;-142.37;100.00;59669.53;5093322;28;20089;-60
2023/02/14 08:55:26;;;;;;;5.43;1.40;;;;;;;-142.37;100.00;59669.53;5094940;28;20020;-62
2023/02/14 08:57:55;;;;;;;3.63;1.63;;;;;;;-142.37;100.00;59669.53;5093107;28;20028;-61
2023/02/14 09:00:21;;;;;;;13.07;4.05;;;;;;;-142.37;100.00;59669.53;5092294;28;20047;-62
2023/02/14 09:02:51;;;;;;;11.82;1.65;;;;;;;-142.37;100.00;59669.53;5093620;28;20396;-60
2023/02/14 09:05:18;;;;;;;5.30;1.30;;;;;;;-142.37;100.00;59669.53;5093311;28;20065;-62
2023/02/14 09:07:43;;;;;;;5.88;1.30;;;;;;;-142.37;100.00;59669.53;5093158;28;20040;-61
2023/02/14 09:10:09;;;;;;;8.52;1.92;;;;;;;-142.37;100.00;59669.53;5091408;28;20055;-62
2023/02/14 09:12:38;;;;;;;12.48;1.02;;;;;;;-142.37;100.00;59669.53;5091674;28;20062;-63
2023/02/14 09:15:04;;;;;;;8.20;2.28;;;;;;;-142.37;100.00;59669.53;5092510;28;20040;-61
2023/02/14 09:17:30;;;;;;;6.05;1.63;;;;;;;-142.37;100.00;59669.53;5092032;28;20039;-62
2023/02/14 09:19:56;;;;;;;8.02;1.27;;;;;;;-142.37;100.00;59669.53;5093626;28;20055;-61
2023/02/14 09:22:22;;;;;;;4.65;1.35;;;;;;;-142.37;100.00;59669.53;5092957;28;20028;-63
2023/02/14 09:24:47;;;;;;;6.97;1.27;;;;;;;-142.37;100.00;59669.53;5091627;28;20024;-62
2023/02/14 09:27:13;;;;;;;3.85;1.25;;;;;;;-142.37;100.00;59669.53;5091766;28;20425;-63
2023/02/14 09:29:39;;;;;;;4.88;1.48;;;;;;;-142.37;100.00;59669.53;5091821;28;20128;-61
2023/02/14 09:32:05;;;;;;;5.32;1.65;;;;;;;-142.37;100.00;59669.53;5093025;28;20028;-62
2023/02/14 09:34:33;;;;;;;6.45;1.55;;;;;;;-142.37;100.00;59669.53;5090933;28;20024;-63
2023/02/14 09:36:58;;;;;;;6.13;1.58;;;;;;;-142.37;100.00;59669.53;5091989;28;20114;-62
2023/02/14 09:39:24;;;;;;;2.95;0.73;;;;;;;-142.37;100.00;59669.53;5092706;28;20455;-62
2023/02/14 09:42:28;;;;;;;5.45;1.95;;;;;;;-142.37;100.00;59669.53;5092749;28;20054;-61
2023/02/14 09:45:03;;;;;;;4.10;1.30;;;;;;;-142.37;100.00;59669.53;5091037;28;20484;-59
2023/02/14 09:47:44;;;;;;;6.13;1.55;;;;;;;-142.37;100.00;59669.53;5092758;28;20493;-59
2023/02/14 09:50:30;;;;;;;6.32;1.80;;;;;;;-142.37;100.00;59669.53;5091726;28;20043;-60
2023/02/14 09:53:00;;;;;;;7.15;1.42;;;;;;;-142.37;100.00;59669.53;5091110;28;20032;-60
2023/02/14 09:55:35;;;;;;;5.30;1.38;;;;;;;-142.37;100.00;59669.53;5092986;28;20036;-61
2023/02/14 09:58:16;;;;;;;8.00;1.63;;;;;;;-142.37;100.00;59669.53;5092653;28;20036;-59
2023/02/14 10:00:58;;;;;;;4.55;1.42;;;;;;;-142.37;100.00;59669.53;5092793;28;20337;-61
2023/02/14 10:03:45;;;;;;;6.28;1.88;;;;;;;-142.37;100.00;59669.53;5091092;28;20094;-62
2023/02/14 10:06:33;;;;;;;4.13;1.45;;;;;;;-142.37;100.00;59669.53;5090773;28;20420;-61
2023/02/14 10:09:13;;;;;;;7.25;1.90;;;;;;;-142.37;100.00;59669.53;5092521;28;20040;-61
2023/02/14 10:11:42;;;;;;;5.45;1.73;;;;;;;-142.37;100.00;59669.53;5090707;28;20399;-62
2023/02/14 10:14:18;;;;;;;4.68;1.40;;;;;;;-142.37;100.00;59669.53;5090061;28;20178;-61
2023/02/14 10:16:50;;;;;;;4.22;1.17;;;;;;;-142.37;100.00;59669.53;5091603;28;20389;-61
2023/02/14 10:19:30;;;;;;;4.38;1.25;;;;;;;-142.37;100.00;59669.53;5091760;28;20039;-62
2023/02/14 10:22:01;;;;;;;3.45;1.75;;;;;;;-142.37;100.00;59669.53;5090113;28;20463;-61
2023/02/14 10:25:02;;;;;;;5.13;1.25;;;;;;;-142.37;100.00;59669.53;5090562;28;20399;-61
2023/02/14 10:27:32;;;;;;;5.75;2.70;;;;;;;-142.37;100.00;59669.53;5080880;28;20044;-61
2023/02/14 10:29:59;;;;;;;6.60;1.65;;;;;;;-142.37;100.00;59669.53;5092463;28;20038;-61
2023/02/14 10:33:04;;;;;;;6.80;2.05;;;;;;;-142.37;100.00;59669.53;5090351;28;20429;-62
2023/02/14 10:35:36;;;;;;;5.53;1.50;;;;;;;-142.37;100.00;59669.53;5090585;28;20510;-61
2023/02/14 10:38:04;;;;;;;11.13;1.63;;;;;;;-142.37;100.00;59669.53;5090077;28;20028;-62
2023/02/14 10:41:02;;;;;;;6.75;2.20;;;;;;;-142.37;100.00;59669.53;5091339;28;20070;-62
2023/02/14 10:43:47;;;;;;;9.05;1.50;;;;;;;-142.37;100.00;59669.53;5091273;28;20116;-60
2023/02/14 10:46:35;;;;;;;3.90;1.60;;;;;;;-142.37;100.00;59669.53;5089839;28;20027;-62
2023/02/14 10:49:03;;;;;;;3.33;1.67;;;;;;;-142.37;100.00;59669.53;5089893;28;20484;-63
2023/02/14 10:51:42;;;;;;;3.20;1.80;;;;;;;-142.37;100.00;59669.53;5091056;28;20488;-63
2023/02/14 10:54:19;;;;;;;5.70;1.80;;;;;;;-142.37;100.00;59669.53;5091073;28;20486;-61
2023/02/14 10:56:50;;;;;;;6.50;2.05;;;;;;;-142.37;100.00;59669.53;5091675;28;20036;-62
2023/02/14 10:59:38;;;;;;;2.75;1.65;;;;;;;-142.37;100.00;59669.53;5093230;28;20506;-62
2023/02/14 11:02:04;;;;;;;10.60;2.28;;;;;;;-142.37;100.00;59669.53;5094895;28;20024;-63
2023/02/14 11:04:31;;;;;;;8.85;3.28;;;;;;;-142.37;100.00;59669.53;5094856;28;20028;-62
2023/02/14 11:06:57;;;;;;;7.72;2.20;;;;;;;-142.37;100.00;59669.53;5094156;28;20092;-61
2023/02/14 11:09:23;;;;;;;16.00;2.53;;;;;;;-142.37;100.00;59669.53;5093610;28;20113;-63
2023/02/14 11:11:59;;;;;;;7.22;2.10;;;;;;;-142.37;100.00;59669.53;5094068;28;20476;-63
2023/02/14 11:14:28;;;;;;;16.10;3.03;;;;;;;-142.37;100.00;59669.53;5093794;28;20043;-62
2023/02/14 11:16:56;;;;;;;19.45;4.65;;;;;;;-142.37;100.00;59669.53;5095143;28;20032;-62
2023/02/14 11:19:26;;;;;;;10.18;2.45;;;;;;;-142.37;100.00;59669.53;5092698;28;20032;-62
2023/02/14 11:21:54;;;;;;;8.60;2.15;;;;;;;-142.37;100.00;59669.53;5095001;28;20096;-61
2023/02/14 11:24:35;;;;;;;9.70;2.80;;;;;;;-142.37;100.00;59669.53;5094829;28;20090;-62
2023/02/14 11:27:14;;;;;;;7.10;2.15;;;;;;;-142.37;100.00;59669.53;5093355;28;20043;-62
2023/02/14 11:29:46;;;;;;;8.60;2.08;;;;;;;-142.37;100.00;59669.53;5093592;28;20111;-61
2023/02/14 11:32:21;;;;;;;6.32;1.73;;;;;;;-142.37;100.00;59669.53;5093318;28;20107;-62
2023/02/14 11:34:52;;;;;;;;;;;;;;;-142.37;100.00;59669.53;5094609;28;20081;-62
2023/02/14 11:37:21;;;;;;;4.28;1.08;;;;;;;-142.37;100.00;59669.53;5094600;28;20015;-63